Terminal Aerodrome Forecast
Issued by NWS

Home | Current Version | Previous Version | Text Only | Print | Product List | Glossary On
Versions: 1 2 3 4 5 6 7 8 9 10 11 12 13 14 15
012
FTUS43 KIND 081720
TAFLAF
TAF
KLAF 081720Z 0818/0918 31013G22KT 5SM -SHSN BKN015
     FM082200 30012G18KT P6SM VCSH SCT015 OVC025
     FM090800 30012G22KT 3SM -SHSN BR OVC015=

USA.gov is the U.S. government's official web portal to all federal, state and local government web resources and services.